Time;durP1;ratioP1;P1;durP2;ratioP2;P2;SDS_P1;SDS_P2;PMS_P1;PMS_P2;Temp;Humidity;BMP_temperature;BMP_pressure;BME280_temperature;BME280_humidity;BME280_pressure;Samples;Min_cycle;Max_cycle;Signal;HPM_P1;HPM_P2
2022/09/25 00:00:56;;;;;;;2.27;1.80;;;;;;;6.30;100.00;100665.67;1755550;81;21240;-39
2022/09/25 00:03:25;;;;;;;2.50;1.40;;;;;;;6.28;100.00;100669.95;1755567;81;21010;-39
2022/09/25 00:05:54;;;;;;;2.60;1.90;;;;;;;6.27;100.00;100669.11;1755827;81;20901;-39
2022/09/25 00:08:21;;;;;;;1.80;1.47;;;;;;;6.26;100.00;100667.39;1730039;81;20975;-38
2022/09/25 00:10:50;;;;;;;3.20;1.90;;;;;;;6.25;100.00;100666.09;1755489;81;20920;-39
2022/09/25 00:13:19;;;;;;;5.28;1.85;;;;;;;6.23;100.00;100669.96;1755507;81;21765;-38
2022/09/25 00:15:53;;;;;;;1.98;1.70;;;;;;;6.24;100.00;100671.67;1755501;81;20983;-39
2022/09/25 00:19:48;;;;;;;1.90;1.70;;;;;;;6.23;100.00;100671.24;1755561;81;20888;-38
2022/09/25 00:20:51;;;;;;;3.85;1.85;;;;;;;6.24;100.00;100669.10;1751895;81;21036;-39
2022/09/25 00:23:17;;;;;;;2.25;2.05;;;;;;;6.23;100.00;100667.80;1729303;81;21343;-38
2022/09/25 00:25:52;;;;;;;1.70;1.60;;;;;;;6.24;100.00;100663.96;1730347;81;21222;-39
2022/09/25 00:28:19;;;;;;;4.05;2.10;;;;;;;6.24;100.00;100669.52;1755382;81;21684;-38
2022/09/25 00:30:45;;;;;;;2.50;1.90;;;;;;;6.17;100.00;100672.48;1755602;81;20920;-38
2022/09/25 00:33:11;;;;;;;1.50;1.40;;;;;;;6.16;100.00;100661.77;1755645;81;21446;-39
2022/09/25 00:35:38;;;;;;;6.47;1.90;;;;;;;6.14;100.00;100664.36;1755562;81;20884;-38
2022/09/25 00:38:05;;;;;;;1.85;1.75;;;;;;;6.20;100.00;100662.66;1755565;81;21781;-39
2022/09/25 00:40:32;;;;;;;3.65;1.80;;;;;;;6.19;100.00;100668.23;1755415;81;20928;-39
2022/09/25 00:42:58;;;;;;;3.47;2.00;;;;;;;6.19;100.00;100664.38;1755471;81;20884;-38
2022/09/25 00:45:25;;;;;;;2.47;1.72;;;;;;;6.17;100.00;100657.06;1755517;81;20872;-38
2022/09/25 00:47:59;;;;;;;3.50;1.85;;;;;;;6.14;100.00;100657.05;1755564;81;21014;-38
2022/09/25 00:50:50;;;;;;;3.33;1.75;;;;;;;6.13;100.00;100652.36;1755300;81;21761;-38
2022/09/25 00:53:30;;;;;;;2.05;1.95;;;;;;;6.14;100.00;100660.91;1755230;81;20884;-38
2022/09/25 00:55:57;;;;;;;4.25;2.02;;;;;;;6.13;100.00;100654.05;1754972;81;20861;-38
2022/09/25 00:58:24;;;;;;;3.45;1.75;;;;;;;6.13;100.00;100660.07;1755360;81;20998;-39
2022/09/25 01:00:51;;;;;;;3.42;1.85;;;;;;;6.15;100.00;100658.36;1755569;81;21517;-38
2022/09/25 01:03:18;;;;;;;5.10;2.00;;;;;;;6.11;100.00;100652.78;1755575;80;21153;-39
2022/09/25 01:05:44;;;;;;;3.95;1.90;;;;;;;6.06;100.00;100658.75;1730024;81;21619;-39
2022/09/25 01:08:16;;;;;;;2.12;1.92;;;;;;;6.02;100.00;100657.87;1755456;81;20975;-38
2022/09/25 01:10:45;;;;;;;2.77;1.98;;;;;;;6.01;100.00;100654.88;1755527;81;20960;-38
2022/09/25 01:13:12;;;;;;;2.00;1.80;;;;;;;6.02;100.00;100660.44;1755568;81;21552;-38
2022/09/25 01:16:00;;;;;;;3.62;1.95;;;;;;;6.04;100.00;100661.30;1755514;81;21159;-39
2022/09/25 01:19:00;;;;;;;7.25;2.15;;;;;;;6.04;100.00;100666.03;1754936;81;20873;-38
2022/09/25 01:21:53;;;;;;;1.70;1.60;;;;;;;6.04;100.00;100664.75;1754831;81;20979;-38
2022/09/25 01:24:41;;;;;;;2.70;1.82;;;;;;;5.99;100.00;100663.84;1755539;81;20967;-37
2022/09/25 01:27:34;;;;;;;2.15;2.00;;;;;;;6.00;100.00;100666.84;1755288;81;20967;-38
2022/09/25 01:30:13;;;;;;;3.70;1.95;;;;;;;6.00;100.00;100664.69;1755904;81;21219;-38
2022/09/25 01:33:06;;;;;;;1.85;1.75;;;;;;;5.98;100.00;100672.41;1755773;81;21505;-37
2022/09/25 01:35:56;;;;;;;1.75;1.65;;;;;;;6.00;100.00;100670.70;1755520;81;20967;-37
2022/09/25 01:38:56;;;;;;;2.67;2.05;;;;;;;6.00;100.00;100672.40;1755526;81;20913;-38
2022/09/25 01:41:29;;;;;;;2.10;1.90;;;;;;;5.98;100.00;100678.84;1755499;81;21446;-37
2022/09/25 01:44:02;;;;;;;6.00;2.02;;;;;;;5.95;100.00;100675.38;1755705;81;21207;-38
2022/09/25 01:46:40;;;;;;;1.77;1.62;;;;;;;5.94;100.00;100674.54;1755317;81;20896;-37
2022/09/25 01:49:21;;;;;;;1.77;1.67;;;;;;;5.93;100.00;100676.64;1755779;81;20975;-38
2022/09/25 01:51:51;;;;;;;3.40;1.85;;;;;;;5.97;100.00;100678.81;1754358;81;20948;-37
2022/09/25 01:54:39;;;;;;;3.25;1.98;;;;;;;5.98;100.00;100684.39;1755425;80;20920;-38
2022/09/25 01:57:20;;;;;;;1.92;1.82;;;;;;;5.96;100.00;100680.55;1755542;81;21831;-37
2022/09/25 02:00:08;;;;;;;5.47;1.87;;;;;;;5.98;100.00;100686.95;1735196;81;21029;-37
2022/09/25 02:04:06;;;;;;;7.55;1.90;;;;;;;6.00;100.00;100686.12;1798329;79;22647;-37
2022/09/25 02:06:35;;;;;;;3.83;2.00;;;;;;;5.94;100.00;100681.37;1758165;81;20932;-38
2022/09/25 02:09:32;;;;;;;2.47;2.02;;;;;;;5.91;100.00;100679.64;1739165;81;21979;-38
2022/09/25 02:12:05;;;;;;;1.77;1.60;;;;;;;5.93;100.00;100684.80;1692029;83;20990;-37
2022/09/25 02:14:38;;;;;;;4.12;2.10;;;;;;;5.93;100.00;100682.23;1724384;82;20939;-38
2022/09/25 02:17:09;;;;;;;2.17;1.80;;;;;;;5.92;100.00;100682.64;1724773;83;21013;-38
2022/09/25 02:22:28;;;;;;;1.60;1.50;;;;;;;5.92;100.00;100686.49;1724734;83;21175;-38
2022/09/25 02:25:06;;;;;;;3.58;1.90;;;;;;;5.96;100.00;100688.25;1724534;83;20963;-38
2022/09/25 02:27:33;;;;;;;1.72;1.62;;;;;;;5.95;100.00;100689.11;1724528;83;20900;-38
2022/09/25 02:30:00;;;;;;;2.02;1.92;;;;;;;5.95;100.00;100690.80;1724585;83;21002;-38
2022/09/25 02:32:31;;;;;;;3.17;2.10;;;;;;;5.95;100.00;100692.09;1724619;83;20903;-38
2022/09/25 02:34:58;;;;;;;1.80;1.70;;;;;;;5.98;100.00;100691.69;1724509;83;21176;-39
2022/09/25 02:37:26;;;;;;;1.67;1.57;;;;;;;5.98;100.00;100691.69;1724506;83;20887;-39
2022/09/25 02:39:56;;;;;;;3.83;1.80;;;;;;;5.98;100.00;100698.52;1724501;83;20962;-39
2022/09/25 02:42:44;;;;;;;3.67;2.00;;;;;;;5.94;100.00;100698.95;1724522;83;20939;-38
2022/09/25 02:45:38;;;;;;;2.00;1.80;;;;;;;5.92;100.00;100693.36;1722460;83;20963;-37
2022/09/25 02:48:38;;;;;;;1.82;1.70;;;;;;;5.90;100.00;100692.05;1698406;84;21252;-37
2022/09/25 02:51:19;;;;;;;4.10;1.70;;;;;;;5.90;100.00;100692.05;1716406;82;20983;-38
2022/09/25 02:53:55;;;;;;;1.92;1.67;;;;;;;5.91;100.00;100701.48;1707661;84;20931;-38
2022/09/25 02:56:35;;;;;;;3.30;2.00;;;;;;;5.88;100.00;100701.47;1708876;84;21023;-38
2022/09/25 02:59:14;;;;;;;3.95;1.90;;;;;;;5.84;100.00;100698.45;1709128;84;21034;-38
2022/09/25 03:01:41;;;;;;;6.85;1.77;;;;;;;5.81;100.00;100699.73;1709080;84;21155;-38
2022/09/25 03:04:07;;;;;;;1.80;1.70;;;;;;;5.78;100.00;100703.57;1668665;84;20916;-38
2022/09/25 03:06:35;;;;;;;1.75;1.60;;;;;;;5.75;100.00;100705.27;1703584;84;20936;-39
2022/09/25 03:09:02;;;;;;;2.02;1.92;;;;;;;5.69;100.00;100702.68;1668475;84;21016;-38
2022/09/25 03:11:29;;;;;;;2.75;1.80;;;;;;;5.72;100.00;100708.23;1703673;84;21473;-38
2022/09/25 03:14:01;;;;;;;2.10;2.00;;;;;;;5.74;100.00;100712.55;1693714;84;21246;-39
2022/09/25 03:16:39;;;;;;;1.80;1.70;;;;;;;5.77;100.00;100709.56;1652511;85;20937;-38
2022/09/25 03:19:07;;;;;;;2.45;2.25;;;;;;;5.74;100.00;100712.55;1703215;84;21023;-37
2022/09/25 03:21:34;;;;;;;4.20;2.33;;;;;;;5.69;100.00;100710.39;1693385;84;21029;-37
2022/09/25 03:24:01;;;;;;;4.85;1.80;;;;;;;5.68;100.00;100713.77;1703090;82;20944;-37
2022/09/25 03:26:29;;;;;;;1.87;1.77;;;;;;;5.70;100.00;100708.66;1649716;85;21268;-37
2022/09/25 03:28:56;;;;;;;2.17;1.57;;;;;;;5.68;100.00;100709.08;1740921;82;20881;-37
2022/09/25 03:31:23;;;;;;;3.90;2.10;;;;;;;5.69;100.00;100712.08;1740919;82;20862;-37
2022/09/25 03:33:49;;;;;;;3.20;1.50;;;;;;;5.67;100.00;100714.63;1741200;82;21481;-37
2022/09/25 03:36:20;;;;;;;2.05;1.90;;;;;;;5.65;100.00;100712.92;1740970;82;20917;-37
2022/09/25 03:38:49;;;;;;;1.87;1.70;;;;;;;5.65;100.00;100715.48;1741014;82;22163;-37
2022/09/25 03:41:20;;;;;;;4.40;2.20;;;;;;;5.67;100.00;100717.20;1740930;82;20870;-37
2022/09/25 03:43:50;;;;;;;2.72;1.95;;;;;;;5.68;100.00;100724.05;1741018;82;20953;-37
2022/09/25 03:46:23;;;;;;;2.25;1.90;;;;;;;5.63;100.00;100723.16;1741014;82;20965;-37
2022/09/25 03:48:53;;;;;;;2.60;2.10;;;;;;;5.62;100.00;100725.30;1741454;82;20881;-37
2022/09/25 03:51:21;;;;;;;3.17;2.02;;;;;;;5.62;100.00;100722.73;1740955;82;21365;-37
2022/09/25 03:53:48;;;;;;;2.25;2.15;;;;;;;5.62;100.00;100720.16;1740946;82;20916;-37
2022/09/25 03:56:19;;;;;;;4.05;2.50;;;;;;;5.65;100.00;100725.31;1741000;82;20877;-37
2022/09/25 03:58:47;;;;;;;3.50;1.92;;;;;;;5.66;100.00;100719.77;1740893;82;21602;-37
2022/09/25 04:01:14;;;;;;;2.15;2.05;;;;;;;5.65;100.00;100712.47;1741088;82;20885;-37
2022/09/25 04:03:44;;;;;;;1.95;1.75;;;;;;;5.67;100.00;100720.20;1746616;81;21183;-37
2022/09/25 04:06:10;;;;;;;1.70;1.60;;;;;;;5.67;100.00;100725.34;1749878;82;21027;-37
2022/09/25 04:08:38;;;;;;;2.05;1.95;;;;;;;5.69;100.00;100729.66;1749885;82;20896;-37
2022/09/25 04:11:05;;;;;;;2.02;1.92;;;;;;;5.73;100.00;100736.93;1749963;82;20980;-37
2022/09/25 04:13:39;;;;;;;4.55;2.17;;;;;;;5.77;100.00;100735.25;1749769;82;20979;-37
2022/09/25 04:16:06;;;;;;;2.10;1.90;;;;;;;5.80;100.00;100740.41;1750111;82;21177;-37
2022/09/25 04:18:35;;;;;;;2.60;2.20;;;;;;;5.86;100.00;100737.45;1749869;82;21415;-37
2022/09/25 04:21:04;;;;;;;2.37;2.17;;;;;;;5.93;100.00;100747.31;1749953;82;20932;-37
2022/09/25 04:23:32;;;;;;;2.70;2.35;;;;;;;6.00;100.00;100743.95;1749784;82;20928;-37
2022/09/25 04:25:59;;;;;;;2.42;2.17;;;;;;;6.09;100.00;100750.01;1749850;82;20979;-37
2022/09/25 04:28:26;;;;;;;6.60;2.10;;;;;;;6.12;100.00;100748.32;1749868;82;21132;-37
2022/09/25 04:30:53;;;;;;;1.65;1.57;;;;;;;6.15;100.00;100748.33;1749795;82;20991;-37
2022/09/25 04:36:06;;;;;;;2.60;1.65;;;;;;;6.22;100.00;100747.94;1750080;82;20933;-37
2022/09/25 04:38:33;;;;;;;6.00;2.00;;;;;;;6.24;100.00;100739.80;1722437;82;20952;-37
2022/09/25 04:41:00;;;;;;;4.20;2.25;;;;;;;6.25;100.00;100743.22;1722497;82;21932;-37
2022/09/25 04:43:34;;;;;;;2.00;1.80;;;;;;;6.28;100.00;100741.94;1749749;82;20943;-37
2022/09/25 04:46:03;;;;;;;2.12;2.00;;;;;;;6.31;100.00;100740.66;1749765;82;20941;-37
2022/09/25 04:48:32;;;;;;;4.40;3.12;;;;;;;6.33;100.00;100741.11;1749904;81;20936;-37
2022/09/25 04:50:59;;;;;;;2.08;1.98;;;;;;;6.39;100.00;100740.70;1749871;82;20920;-37
2022/09/25 04:53:28;;;;;;;3.25;1.80;;;;;;;6.42;100.00;100744.56;1722383;82;21243;-37
2022/09/25 04:56:06;;;;;;;2.25;2.15;;;;;;;6.44;100.00;100741.56;1750221;82;20991;-37
2022/09/25 04:58:34;;;;;;;2.47;2.20;;;;;;;6.51;100.00;100756.59;1722454;82;20937;-37
2022/09/25 05:01:07;;;;;;;3.85;2.27;;;;;;;6.53;100.00;100758.33;1749809;81;20987;-37
2022/09/25 05:03:35;;;;;;;2.05;1.90;;;;;;;6.56;100.00;100762.20;1743484;81;21027;-37
2022/09/25 05:06:02;;;;;;;2.65;2.45;;;;;;;6.59;100.00;100766.06;1700754;84;21150;-37
2022/09/25 05:08:29;;;;;;;3.08;2.22;;;;;;;6.65;100.00;100769.09;1680686;84;21035;-37
2022/09/25 05:10:56;;;;;;;5.05;2.00;;;;;;;6.69;100.00;100765.66;1696083;84;21506;-37
2022/09/25 05:13:23;;;;;;;2.72;2.27;;;;;;;6.75;100.00;100771.26;1696116;84;20972;-37
2022/09/25 05:15:51;;;;;;;2.37;2.17;;;;;;;6.78;100.00;100774.25;1696055;84;21554;-38
2022/09/25 05:18:20;;;;;;;4.37;2.27;;;;;;;6.83;100.00;100766.98;1695946;84;22032;-37
2022/09/25 05:20:47;;;;;;;2.20;1.87;;;;;;;6.89;100.00;100771.28;1666090;84;20917;-37
2022/09/25 05:23:15;;;;;;;2.30;2.10;;;;;;;6.94;100.00;100769.57;1695990;84;21038;-38
2022/09/25 05:25:41;;;;;;;4.78;2.30;;;;;;;7.02;100.00;100774.30;1695889;84;20972;-38
2022/09/25 05:28:09;;;;;;;2.45;2.10;;;;;;;7.09;100.00;100779.03;1666230;84;20960;-37
2022/09/25 05:30:37;;;;;;;2.27;1.92;;;;;;;7.18;100.00;100782.05;1695806;84;22085;-38
2022/09/25 05:33:03;;;;;;;1.90;1.80;;;;;;;7.26;100.00;100783.34;1695778;84;20972;-38
2022/09/25 05:35:32;;;;;;;2.40;2.20;;;;;;;7.32;100.00;100785.91;1695965;84;21015;-38
2022/09/25 05:37:58;;;;;;;1.70;1.60;;;;;;;7.39;100.00;100782.92;1695853;84;21406;-37
2022/09/25 05:40:25;;;;;;;4.40;2.22;;;;;;;7.46;100.00;100782.92;1695840;84;20970;-38
2022/09/25 05:42:52;;;;;;;4.10;2.00;;;;;;;7.53;100.00;100783.75;1695950;84;21130;-38
2022/09/25 05:45:20;;;;;;;2.00;1.90;;;;;;;7.62;100.00;100780.32;1696008;84;21542;-37
2022/09/25 05:47:46;;;;;;;3.70;2.00;;;;;;;7.70;100.00;100782.45;1695778;84;21000;-37
2022/09/25 05:50:15;;;;;;;1.95;1.82;;;;;;;7.76;100.00;100781.17;1695701;83;20964;-38
2022/09/25 05:52:42;;;;;;;4.25;1.80;;;;;;;7.85;100.00;100778.14;1666091;84;21407;-37
2022/09/25 05:55:09;;;;;;;1.80;1.70;;;;;;;7.92;100.00;100773.39;1696108;84;21828;-38
2022/09/25 05:57:37;;;;;;;4.78;1.95;;;;;;;7.98;100.00;100783.72;1695900;83;20956;-38
2022/09/25 06:00:08;;;;;;;1.82;1.72;;;;;;;8.09;100.00;100784.10;1695915;84;21554;-37
2022/09/25 06:02:42;;;;;;;3.52;1.90;;;;;;;8.16;100.00;100784.50;1695806;84;21020;-39
2022/09/25 06:05:09;;;;;;;2.12;1.90;;;;;;;8.23;100.00;100783.64;1695920;83;20869;-38
2022/09/25 06:07:36;;;;;;;6.15;1.80;;;;;;;8.28;100.00;100781.89;1695938;84;21161;-38
2022/09/25 06:10:04;;;;;;;1.90;1.80;;;;;;;8.36;100.00;100791.31;1695938;84;20928;-38
2022/09/25 06:12:31;;;;;;;2.50;2.30;;;;;;;8.41;100.00;100799.89;1695741;83;21566;-38
2022/09/25 06:15:00;;;;;;;1.82;1.72;;;;;;;8.49;100.00;100795.58;1695852;84;20944;-38
2022/09/25 06:17:27;;;;;;;2.12;2.02;;;;;;;8.56;100.00;100792.13;1695860;84;20865;-38
2022/09/25 06:19:53;;;;;;;2.62;1.90;;;;;;;8.66;100.00;100801.11;1696065;84;21748;-38
2022/09/25 06:22:20;;;;;;;1.80;1.70;;;;;;;8.74;100.00;100799.36;1695743;84;20999;-38
2022/09/25 06:24:47;;;;;;;2.75;2.17;;;;;;;8.85;100.00;100816.09;1695806;84;20992;-38
2022/09/25 06:27:14;;;;;;;1.95;1.80;;;;;;;8.99;100.00;100821.17;1695927;84;20956;-37
2022/09/25 06:29:42;;;;;;;2.02;1.80;;;;;;;9.08;100.00;100824.98;1696180;84;21537;-38
2022/09/25 06:32:08;;;;;;;3.45;2.05;;;;;;;9.17;100.00;100826.20;1695950;84;21144;-38
2022/09/25 06:34:36;;;;;;;1.87;1.67;;;;;;;9.26;100.00;100824.44;1695735;84;20897;-38
2022/09/25 06:37:03;;;;;;;1.90;1.80;;;;;;;9.36;100.00;100837.70;1696022;83;21102;-38
2022/09/25 06:39:32;;;;;;;2.35;2.15;;;;;;;9.45;100.00;100829.03;1695989;84;21565;-38
2022/09/25 06:41:59;;;;;;;3.42;1.65;;;;;;;9.50;100.00;100825.97;1695865;84;20960;-38
2022/09/25 06:44:27;;;;;;;2.98;2.05;;;;;;;9.55;100.00;100824.65;1695733;84;21190;-37
2022/09/25 06:46:53;;;;;;;2.05;1.87;;;;;;;9.61;100.00;100825.46;1695869;84;21506;-37
2022/09/25 06:49:21;;;;;;;2.25;1.52;;;;;;;9.71;100.00;100826.66;1695963;84;21051;-37
2022/09/25 06:51:49;;;;;;;2.15;2.05;;;;;;;9.81;100.00;100832.16;1696134;83;20924;-39
2022/09/25 06:54:16;;;;;;;2.00;1.90;;;;;;;9.93;100.00;100829.89;1696025;84;20957;-39
2022/09/25 06:56:43;;;;;;;1.98;1.72;;;;;;;10.03;100.00;100828.95;1696033;84;21281;-38
2022/09/25 06:59:09;;;;;;;1.80;1.70;;;;;;;10.14;100.00;100830.13;1696034;84;20937;-39
2022/09/25 07:01:36;;;;;;;4.03;1.72;;;;;;;10.25;100.00;100827.43;1696067;84;21038;-39
2022/09/25 07:04:03;;;;;;;3.17;1.82;;;;;;;10.33;100.00;100824.73;1697925;83;21008;-39
2022/09/25 07:06:31;;;;;;;3.45;1.55;;;;;;;10.40;100.00;100826.81;1684806;83;20933;-38
2022/09/25 07:08:58;;;;;;;1.40;1.37;;;;;;;10.47;100.00;100830.64;1701641;84;21127;-37
2022/09/25 07:11:26;;;;;;;1.85;1.75;;;;;;;10.57;100.00;100823.63;1711036;82;20881;-37
2022/09/25 07:13:54;;;;;;;2.30;1.70;;;;;;;10.67;100.00;100819.61;1701515;84;20936;-37
2022/09/25 07:16:24;;;;;;;1.70;1.60;;;;;;;10.77;100.00;100818.64;1711361;83;21427;-38
2022/09/25 07:18:56;;;;;;;1.42;1.42;;;;;;;10.86;100.00;100815.91;1700985;84;20956;-38
2022/09/25 07:21:23;;;;;;;1.52;1.42;;;;;;;10.98;100.00;100825.66;1684092;85;21597;-38
2022/09/25 07:23:51;;;;;;;5.12;1.22;;;;;;;11.10;100.00;100819.45;1711244;83;21493;-38
2022/09/25 07:26:23;;;;;;;2.62;1.60;;;;;;;11.25;100.00;100811.45;1701684;84;20960;-38
2022/09/25 07:29:01;;;;;;;1.50;1.50;;;;;;;11.42;100.00;100820.71;1711130;83;20900;-38
2022/09/25 07:31:31;;;;;;;1.87;1.50;;;;;;;11.55;100.00;100819.61;1701680;84;20952;-38
2022/09/25 07:34:01;;;;;;;1.75;1.65;;;;;;;11.70;98.99;100816.36;1711228;83;21778;-38
2022/09/25 07:36:27;;;;;;;1.30;1.30;;;;;;;11.84;98.70;100817.41;1682442;85;20967;-38
2022/09/25 07:38:54;;;;;;;1.40;1.30;;;;;;;11.96;97.62;100809.39;1701481;84;20968;-38
2022/09/25 07:41:21;;;;;;;1.30;1.30;;;;;;;12.04;97.36;100814.05;1711309;83;21695;-38
2022/09/25 07:43:58;;;;;;;1.30;1.30;;;;;;;12.17;99.19;100811.20;1701504;84;20956;-38
2022/09/25 07:46:25;;;;;;;2.65;1.40;;;;;;;12.31;97.61;100810.92;1711180;83;21263;-38
2022/09/25 07:48:52;;;;;;;2.80;1.65;;;;;;;12.42;96.82;100810.72;1701339;84;20873;-38
2022/09/25 07:51:22;;;;;;;6.42;1.27;;;;;;;12.48;94.68;100818.38;1711162;83;20991;-38
2022/09/25 07:53:51;;;;;;;2.92;1.67;;;;;;;12.54;93.67;100811.77;1682499;85;21050;-38
2022/09/25 07:56:18;;;;;;;1.20;1.20;;;;;;;12.60;91.53;100811.64;1701597;84;20916;-38
2022/09/25 07:58:44;;;;;;;1.40;1.30;;;;;;;12.62;90.34;100812.45;1711407;83;21576;-38
2022/09/25 08:01:12;;;;;;;1.45;1.37;;;;;;;12.67;89.66;100812.38;1701445;84;20996;-38
2022/09/25 08:03:39;;;;;;;1.45;1.35;;;;;;;12.72;87.90;100809.65;1685543;83;20972;-38
2022/09/25 08:06:12;;;;;;;1.80;1.70;;;;;;;12.81;89.85;100814.66;1692992;84;21469;-38
2022/09/25 08:08:40;;;;;;;1.45;1.42;;;;;;;12.92;88.65;100815.27;1692614;84;21029;-38
2022/09/25 08:11:11;;;;;;;2.15;1.42;;;;;;;13.02;89.16;100821.11;1721618;83;21101;-38
2022/09/25 08:13:39;;;;;;;1.50;1.40;;;;;;;13.07;87.14;100821.86;1721343;83;20935;-38
2022/09/25 08:16:12;;;;;;;1.20;1.20;;;;;;;13.14;87.86;100831.67;1721615;83;20947;-38
2022/09/25 08:18:41;;;;;;;1.25;1.20;;;;;;;13.15;82.56;100821.69;1692925;84;20912;-38
2022/09/25 08:21:09;;;;;;;1.30;1.25;;;;;;;13.16;82.98;100824.69;1692640;84;20943;-38
2022/09/25 08:23:36;;;;;;;3.33;1.40;;;;;;;13.19;82.67;100823.78;1692654;84;21285;-38
2022/09/25 08:26:02;;;;;;;3.00;1.50;;;;;;;13.21;83.29;100827.19;1721736;83;20912;-38
2022/09/25 08:28:30;;;;;;;1.47;1.37;;;;;;;13.32;84.11;100832.14;1721551;83;21030;-38
2022/09/25 08:31:00;;;;;;;2.75;1.27;;;;;;;13.41;82.08;100817.61;1692973;84;21442;-38
2022/09/25 08:33:27;;;;;;;1.85;1.50;;;;;;;13.48;79.44;100820.48;1666777;84;20895;-38
2022/09/25 08:35:58;;;;;;;1.50;1.30;;;;;;;13.53;78.94;100821.69;1692824;84;22235;-38
2022/09/25 08:38:25;;;;;;;1.65;1.55;;;;;;;13.54;81.49;100821.25;1694936;83;20982;-38
2022/09/25 08:41:08;;;;;;;3.40;1.00;;;;;;;13.57;79.28;100818.11;1721695;83;20983;-38
2022/09/25 08:43:52;;;;;;;1.52;1.15;;;;;;;13.66;78.48;100806.62;1692665;84;20913;-38
2022/09/25 08:49:11;;;;;;;2.00;1.20;;;;;;;13.96;79.18;100810.61;1692729;84;21023;-38
2022/09/25 08:51:43;;;;;;;2.47;1.20;;;;;;;14.18;79.10;100800.91;1692738;84;20931;-39
2022/09/25 08:54:16;;;;;;;1.10;1.00;;;;;;;14.31;74.78;100800.98;1692728;84;20990;-38
2022/09/25 08:56:44;;;;;;;5.83;1.40;;;;;;;14.43;74.83;100806.28;1687019;84;20950;-38
2022/09/25 08:59:30;;;;;;;1.10;0.95;;;;;;;14.63;75.99;100793.10;1692705;84;20931;-38
2022/09/25 09:02:03;;;;;;;5.87;1.30;;;;;;;14.73;74.42;100793.28;1692610;84;22016;-38
2022/09/25 09:04:51;;;;;;;2.60;1.25;;;;;;;14.76;73.24;100799.69;1714965;83;22231;-39
2022/09/25 09:07:32;;;;;;;1.02;1.00;;;;;;;14.88;70.86;100799.77;1700679;84;20893;-39
2022/09/25 09:10:28;;;;;;;0.88;0.80;;;;;;;14.91;69.77;100787.11;1700774;84;20989;-38
2022/09/25 09:13:13;;;;;;;0.90;0.90;;;;;;;14.91;67.82;100811.39;1695924;84;20956;-38
2022/09/25 09:15:51;;;;;;;1.10;1.10;;;;;;;14.94;68.84;100793.52;1696145;84;21767;-39
2022/09/25 09:18:23;;;;;;;3.08;0.78;;;;;;;15.13;70.77;100796.82;1695823;84;20910;-39
2022/09/25 09:20:56;;;;;;;1.52;1.02;;;;;;;15.22;68.98;100797.38;1695925;83;21486;-38
2022/09/25 09:23:30;;;;;;;0.85;0.85;;;;;;;15.27;68.38;100793.77;1695764;84;21012;-39
2022/09/25 09:26:20;;;;;;;0.90;0.90;;;;;;;15.39;69.43;100795.98;1696288;84;20901;-39
2022/09/25 09:29:15;;;;;;;2.50;1.05;;;;;;;15.40;66.73;100796.82;1695818;84;21239;-39
2022/09/25 09:32:06;;;;;;;2.52;0.90;;;;;;;15.51;66.61;100791.65;1695978;84;20925;-39
2022/09/25 09:34:56;;;;;;;2.85;0.98;;;;;;;15.47;65.06;100789.22;1640187;84;21756;-39
2022/09/25 09:37:50;;;;;;;1.32;0.93;;;;;;;15.38;68.29;100789.06;1695513;84;20909;-39
2022/09/25 09:40:45;;;;;;;1.02;1.00;;;;;;;15.55;66.27;100788.50;1695901;83;20956;-39
2022/09/25 09:43:45;;;;;;;0.98;0.80;;;;;;;15.63;63.86;100799.52;1695856;84;21159;-39
2022/09/25 09:46:23;;;;;;;1.17;0.93;;;;;;;15.57;63.97;100784.55;1695715;84;20976;-39
2022/09/25 09:49:19;;;;;;;5.65;1.00;;;;;;;15.52;66.34;100793.35;1695840;84;20983;-39
2022/09/25 09:51:51;;;;;;;0.70;0.70;;;;;;;15.50;63.11;100782.12;1696047;84;20992;-39
2022/09/25 09:54:24;;;;;;;1.92;0.90;;;;;;;15.58;63.03;100782.33;1695889;84;20921;-38
2022/09/25 09:56:51;;;;;;;1.82;1.10;;;;;;;15.38;63.69;100786.46;1696012;84;21154;-39
2022/09/25 09:59:24;;;;;;;3.47;1.00;;;;;;;15.15;63.64;100788.06;1666118;84;20956;-39
2022/09/25 10:02:02;;;;;;;0.98;0.93;;;;;;;15.12;66.80;100780.78;1695747;84;21003;-38
2022/09/25 10:04:33;;;;;;;1.45;1.17;;;;;;;15.25;65.64;100772.11;1665457;84;21523;-39
2022/09/25 10:07:10;;;;;;;3.47;0.95;;;;;;;15.42;65.34;100779.40;1676838;84;21458;-39
2022/09/25 10:09:37;;;;;;;1.37;0.93;;;;;;;15.59;63.48;100782.27;1693431;84;21146;-39
2022/09/25 10:12:32;;;;;;;2.83;0.98;;;;;;;15.67;62.32;100792.44;1702997;84;20999;-39
2022/09/25 10:15:03;;;;;;;1.17;0.80;;;;;;;15.74;62.47;100780.88;1693627;84;20973;-39
2022/09/25 10:17:30;;;;;;;2.05;0.90;;;;;;;15.82;63.55;100792.83;1673499;85;21031;-39
2022/09/25 10:20:00;;;;;;;1.52;0.80;;;;;;;15.84;63.20;100780.58;1703200;84;21591;-39
2022/09/25 10:22:34;;;;;;;1.05;0.95;;;;;;;15.92;62.21;100782.05;1674626;84;21278;-39
2022/09/25 10:25:04;;;;;;;1.37;1.27;;;;;;;16.00;62.12;100785.66;1714256;82;20929;-39
2022/09/25 10:27:46;;;;;;;1.75;0.93;;;;;;;15.90;62.39;100782.99;1741231;82;20996;-39
2022/09/25 10:30:19;;;;;;;2.30;0.80;;;;;;;15.82;63.47;100781.08;1740918;81;20893;-39
2022/09/25 10:33:08;;;;;;;2.37;0.95;;;;;;;15.91;61.34;100784.70;1741468;82;20980;-39
2022/09/25 10:35:42;;;;;;;2.80;1.20;;;;;;;15.92;62.27;100789.01;1739886;81;21871;-39
2022/09/25 10:38:40;;;;;;;2.10;1.10;;;;;;;16.02;62.33;100778.62;1741086;82;21003;-39
2022/09/25 10:41:18;;;;;;;1.15;1.07;;;;;;;15.93;62.05;100790.71;1741059;82;20932;-39
2022/09/25 10:43:59;;;;;;;1.05;1.02;;;;;;;15.67;63.91;100787.22;1741201;82;21008;-39
2022/09/25 10:52:13;;;;;;;1.45;0.98;;;;;;;15.50;66.38;100789.94;1741074;82;21012;-39
2022/09/25 10:54:41;;;;;;;3.60;1.20;;;;;;;15.62;66.95;100789.14;1741341;82;20976;-39
2022/09/25 10:57:34;;;;;;;0.90;0.90;;;;;;;15.77;65.92;100783.84;1740880;82;20948;-38
2022/09/25 11:00:07;;;;;;;0.82;0.80;;;;;;;15.99;67.87;100781.34;1741025;82;21550;-38
2022/09/25 11:02:42;;;;;;;1.30;1.20;;;;;;;16.16;64.96;100783.81;1711872;82;21164;-39
2022/09/25 11:05:18;;;;;;;1.07;0.98;;;;;;;16.15;64.06;100782.94;1739041;81;21432;-39
2022/09/25 11:07:51;;;;;;;1.07;1.07;;;;;;;16.07;62.88;100783.25;1699536;83;21570;-39
2022/09/25 11:10:20;;;;;;;4.10;1.07;;;;;;;16.09;63.96;100776.20;1695965;84;20917;-39
2022/09/25 11:12:47;;;;;;;1.02;1.00;;;;;;;16.27;63.85;100780.80;1696194;83;20924;-39
2022/09/25 11:15:19;;;;;;;4.03;1.00;;;;;;;16.28;63.25;100780.73;1696088;84;21237;-39
2022/09/25 11:17:49;;;;;;;0.80;0.80;;;;;;;16.04;63.40;100779.45;1695886;84;20956;-39
2022/09/25 11:20:29;;;;;;;1.85;1.07;;;;;;;15.87;63.12;100786.98;1695938;84;20971;-39
2022/09/25 11:23:24;;;;;;;3.42;1.27;;;;;;;15.78;63.89;100781.16;1695854;83;21510;-39
2022/09/25 11:26:10;;;;;;;1.15;0.98;;;;;;;15.84;63.24;100787.10;1696189;84;21035;-39
2022/09/25 11:28:48;;;;;;;1.57;1.20;;;;;;;15.86;64.24;100780.91;1696043;84;21355;-39
2022/09/25 11:31:31;;;;;;;1.30;1.20;;;;;;;16.02;62.26;100774.70;1685699;84;20972;-39
2022/09/25 11:34:48;;;;;;;1.00;0.90;;;;;;;16.18;61.89;100779.37;1696075;83;21566;-39
2022/09/25 11:37:26;;;;;;;;;;;;;;;16.25;60.28;100774.31;1697616;84;20971;-39
2022/09/25 11:42:58;;;;;;;1.55;1.17;;;;;;;16.42;62.59;100762.39;1696080;83;21800;-39
2022/09/25 11:45:48;;;;;;;4.42;1.30;;;;;;;16.52;63.55;100760.68;1695632;83;21482;-40
2022/09/25 11:48:23;;;;;;;3.02;0.90;;;;;;;16.58;62.68;100763.52;1695902;84;21066;-40
2022/09/25 11:51:26;;;;;;;1.00;1.00;;;;;;;16.75;61.38;100762.86;1696278;83;21047;-39
2022/09/25 11:54:15;;;;;;;2.05;1.07;;;;;;;16.80;61.37;100759.59;1662761;83;20925;-39
2022/09/25 11:56:56;;;;;;;1.15;1.10;;;;;;;16.90;59.28;100760.08;1696073;84;21204;-39
2022/09/25 11:59:41;;;;;;;2.22;1.05;;;;;;;16.94;60.69;100751.20;1666169;84;20952;-39
2022/09/25 12:02:32;;;;;;;2.20;1.10;;;;;;;16.96;59.84;100747.23;1696251;83;21562;-40
2022/09/25 12:05:10;;;;;;;1.65;1.55;;;;;;;16.97;58.26;100751.98;1695844;83;21102;-37
2022/09/25 12:08:00;;;;;;;3.72;1.15;;;;;;;16.79;57.89;100763.56;1696002;84;20957;-38
2022/09/25 12:10:44;;;;;;;3.00;1.20;;;;;;;16.79;59.11;100764.88;1695884;83;22040;-38